createdAt,value
2023-03-24T00:00:11.729Z,99.90
2023-03-24T00:04:14.268Z,99.90
2023-03-24T00:08:17.141Z,99.90
2023-03-24T00:12:18.852Z,99.90
2023-03-24T00:16:21.811Z,99.90
2023-03-24T00:20:26.124Z,99.90
2023-03-24T00:24:27.752Z,99.90
2023-03-24T00:28:31.672Z,99.90
2023-03-24T00:32:33.358Z,99.90
2023-03-24T00:36:35.515Z,99.90
2023-03-24T00:40:37.166Z,99.90
2023-03-24T00:44:38.902Z,99.90
2023-03-24T00:48:42.080Z,99.90
2023-03-24T00:52:48.106Z,99.90
2023-03-24T00:56:49.958Z,99.90
2023-03-24T01:00:55.729Z,99.90
2023-03-24T01:05:02.431Z,99.90
2023-03-24T01:09:05.569Z,99.90
2023-03-24T01:13:07.222Z,99.90
2023-03-24T01:17:08.849Z,99.90
2023-03-24T01:21:11.426Z,99.90
2023-03-24T01:25:23.205Z,99.90
2023-03-24T01:29:24.930Z,99.90
2023-03-24T01:33:27.041Z,99.90
2023-03-24T01:37:28.788Z,99.90
2023-03-24T01:41:33.350Z,99.90
2023-03-24T01:45:44.295Z,99.90
2023-03-24T01:49:51.286Z,99.90
2023-03-24T01:54:13.176Z,99.90
2023-03-24T01:58:15.001Z,99.90
2023-03-24T02:02:17.271Z,99.90
2023-03-24T02:06:19.122Z,99.90
2023-03-24T02:10:21.925Z,99.90
2023-03-24T02:14:23.614Z,99.90
2023-03-24T02:18:44.786Z,99.90
2023-03-24T02:23:05.450Z,99.90
2023-03-24T02:27:16.909Z,99.90
2023-03-24T02:31:24.128Z,99.90
2023-03-24T02:35:34.034Z,99.90
2023-03-24T02:39:41.896Z,99.90
2023-03-24T02:43:56.433Z,99.90
2023-03-24T02:48:16.739Z,99.90
2023-03-24T02:52:21.519Z,99.90
2023-03-24T02:56:30.068Z,99.90
2023-03-24T03:00:34.982Z,99.90
2023-03-24T03:04:49.794Z,99.90
2023-03-24T03:08:51.869Z,99.90
2023-03-24T03:12:55.439Z,99.90
2023-03-24T03:17:09.452Z,99.90
2023-03-24T03:21:13.140Z,99.90
2023-03-24T03:25:15.950Z,99.90
2023-03-24T03:29:19.723Z,99.90
2023-03-24T03:33:25.874Z,99.90
2023-03-24T03:37:36.381Z,99.90
2023-03-24T03:41:38.709Z,99.90
2023-03-24T03:45:40.361Z,99.90
2023-03-24T03:49:42.498Z,99.90
2023-03-24T03:53:47.138Z,99.90
2023-03-24T03:57:49.235Z,99.90
2023-03-24T04:01:51.282Z,99.90
2023-03-24T04:05:53.008Z,99.90
2023-03-24T04:10:13.417Z,99.90
2023-03-24T04:14:34.636Z,99.90
2023-03-24T04:19:05.626Z,99.90
2023-03-24T04:23:14.821Z,99.90
2023-03-24T04:31:45.116Z,99.90
2023-03-24T04:35:49.413Z,99.90
2023-03-24T04:39:53.867Z,99.90
2023-03-24T04:43:57.137Z,99.90
2023-03-24T04:48:01.080Z,99.90
2023-03-24T04:52:02.895Z,99.90
2023-03-24T04:56:04.440Z,99.90
2023-03-24T05:00:08.376Z,99.90
2023-03-24T05:04:10.198Z,99.90
2023-03-24T05:08:11.958Z,99.90
2023-03-24T05:12:13.749Z,99.90
2023-03-24T05:16:16.063Z,99.90
2023-03-24T05:20:17.997Z,99.90
2023-03-24T05:24:19.592Z,99.90
2023-03-24T05:28:21.162Z,99.90
2023-03-24T05:32:22.736Z,99.90
2023-03-24T05:36:24.357Z,99.90
2023-03-24T05:40:26.358Z,99.90
2023-03-24T05:44:27.938Z,99.90
2023-03-24T05:48:29.487Z,99.90
2023-03-24T05:52:31.655Z,99.90
2023-03-24T05:56:33.543Z,99.90
2023-03-24T06:00:35.200Z,99.90
2023-03-24T06:04:36.976Z,99.90
2023-03-24T06:08:38.612Z,99.90
2023-03-24T06:12:40.949Z,99.90
2023-03-24T06:16:42.669Z,99.90
2023-03-24T06:20:50.766Z,99.90
2023-03-24T06:24:53.825Z,99.90
2023-03-24T06:28:55.554Z,99.90
2023-03-24T06:32:57.347Z,99.90
2023-03-24T06:37:05.745Z,99.90
2023-03-24T06:41:07.787Z,99.90
2023-03-24T06:45:09.893Z,99.90
2023-03-24T06:49:11.596Z,99.90
2023-03-24T06:53:13.281Z,99.90
2023-03-24T06:57:14.900Z,99.90
2023-03-24T07:01:16.527Z,99.90
2023-03-24T07:05:19.017Z,99.90
2023-03-24T07:09:21.250Z,99.90
2023-03-24T07:13:22.979Z,99.90
2023-03-24T07:17:25.354Z,99.90
2023-03-24T07:21:27.077Z,99.90
2023-03-24T07:25:28.752Z,99.90
2023-03-24T07:29:30.691Z,99.90
2023-03-24T07:33:32.763Z,99.90
2023-03-24T07:37:34.452Z,99.90
2023-03-24T07:41:36.213Z,99.90
2023-03-24T07:45:37.893Z,99.90
2023-03-24T07:49:39.498Z,99.90
2023-03-24T07:53:41.259Z,99.90
2023-03-24T07:57:45.660Z,99.90
2023-03-24T08:01:52.087Z,99.90
2023-03-24T08:05:56.505Z,99.90
2023-03-24T08:09:58.137Z,99.90
2023-03-24T08:13:59.762Z,99.90
2023-03-24T08:18:01.485Z,99.90
2023-03-24T08:22:04.172Z,99.90
2023-03-24T08:26:09.392Z,99.90
2023-03-24T08:30:13.945Z,99.90
2023-03-24T08:34:15.619Z,99.90
2023-03-24T08:38:19.031Z,99.90
2023-03-24T08:42:21.198Z,99.90
2023-03-24T08:46:22.779Z,99.90
2023-03-24T08:50:25.870Z,99.90
2023-03-24T08:54:27.725Z,99.90
2023-03-24T08:58:29.313Z,99.90
2023-03-24T09:02:30.996Z,99.90
2023-03-24T09:06:32.727Z,99.90
2023-03-24T09:10:36.332Z,99.90
2023-03-24T09:14:38.028Z,99.90
2023-03-24T09:18:39.929Z,99.90
2023-03-24T09:22:43.828Z,99.90
2023-03-24T09:26:46.073Z,99.90
2023-03-24T09:30:48.428Z,99.90
2023-03-24T09:34:50.804Z,99.90
2023-03-24T09:38:52.490Z,99.90
2023-03-24T09:42:57.796Z,99.90
2023-03-24T09:47:25.742Z,98.70
2023-03-24T09:51:28.664Z,98.40
2023-03-24T09:55:30.235Z,98.40
2023-03-24T09:59:36.369Z,98.30
2023-03-24T10:03:38.080Z,98.10
2023-03-24T10:07:43.067Z,98.00
2023-03-24T10:11:53.874Z,97.70
2023-03-24T10:16:02.001Z,96.80
2023-03-24T10:20:18.722Z,96.50
2023-03-24T10:24:30.265Z,94.90
2023-03-24T10:28:36.650Z,94.80
2023-03-24T10:32:38.721Z,94.40
2023-03-24T10:36:41.113Z,93.80
2023-03-24T10:40:42.942Z,92.60
2023-03-24T10:44:46.956Z,90.90
2023-03-24T10:48:49.849Z,90.90
2023-03-24T10:52:53.280Z,91.80
2023-03-24T10:56:58.227Z,92.20
2023-03-24T11:01:00.616Z,90.80
2023-03-24T11:05:13.191Z,90.20
2023-03-24T11:09:22.023Z,91.70
2023-03-24T11:13:23.653Z,91.50
2023-03-24T11:17:25.397Z,91.50
2023-03-24T11:21:28.672Z,91.90
2023-03-24T11:25:35.685Z,92.40
2023-03-24T11:29:39.924Z,92.40
2023-03-24T11:33:44.154Z,92.90
2023-03-24T11:37:46.265Z,93.10
2023-03-24T11:42:02.921Z,92.80
2023-03-24T11:46:07.526Z,92.90
2023-03-24T11:50:09.213Z,91.10
2023-03-24T11:54:15.952Z,90.10
2023-03-24T11:58:25.065Z,88.20
2023-03-24T12:02:45.579Z,88.70
2023-03-24T12:07:07.775Z,90.90
2023-03-24T12:11:12.453Z,90.40
2023-03-24T12:15:27.444Z,90.70
2023-03-24T12:19:33.621Z,90.10
2023-03-24T12:23:46.205Z,90.00
2023-03-24T12:27:54.052Z,90.10
2023-03-24T12:32:08.012Z,88.70
2023-03-24T12:36:13.432Z,86.80
2023-03-24T12:40:27.364Z,86.90
2023-03-24T12:44:47.944Z,86.20
2023-03-24T12:49:03.150Z,86.40
2023-03-24T12:53:08.729Z,85.60
2023-03-24T12:57:12.855Z,81.80
2023-03-24T13:01:23.931Z,84.30
2023-03-24T13:05:33.287Z,83.80
2023-03-24T13:09:43.933Z,86.80
2023-03-24T13:13:46.626Z,88.00
2023-03-24T13:18:01.836Z,91.00
2023-03-24T13:22:05.424Z,90.20
2023-03-24T13:26:10.187Z,88.30
2023-03-24T13:30:17.968Z,86.10
2023-03-24T13:34:26.238Z,85.20
2023-03-24T13:38:37.118Z,88.40
2023-03-24T13:42:58.195Z,89.30
2023-03-24T13:47:09.888Z,87.60
2023-03-24T13:51:23.754Z,85.30
2023-03-24T13:55:30.174Z,87.30
2023-03-24T13:59:37.804Z,85.30
2023-03-24T14:03:41.691Z,84.60
2023-03-24T14:07:46.782Z,84.30
2023-03-24T14:12:03.812Z,88.30
2023-03-24T14:16:31.961Z,87.30
2023-03-24T14:20:34.876Z,88.10
2023-03-24T14:24:37.123Z,87.30
2023-03-24T14:28:43.306Z,86.10
2023-03-24T14:32:47.133Z,87.80
2023-03-24T14:36:57.477Z,88.60
2023-03-24T14:41:05.191Z,89.30
2023-03-24T14:45:27.238Z,90.40
2023-03-24T14:49:30.183Z,91.00
2023-03-24T14:53:35.537Z,92.50
2023-03-24T14:57:44.572Z,93.80
2023-03-24T15:01:48.975Z,94.80
2023-03-24T15:05:50.821Z,94.50
2023-03-24T15:09:52.366Z,94.10
2023-03-24T15:13:55.240Z,95.00
2023-03-24T15:17:57.110Z,95.70
2023-03-24T15:22:03.530Z,97.00
2023-03-24T15:26:12.097Z,95.90
2023-03-24T15:30:14.840Z,96.30
2023-03-24T15:34:37.141Z,96.50
2023-03-24T15:38:45.036Z,94.60
2023-03-24T15:42:48.241Z,94.10
2023-03-24T15:46:50.166Z,94.40
2023-03-24T15:50:56.623Z,94.10
2023-03-24T15:55:00.421Z,94.40
2023-03-24T15:59:28.757Z,94.50
2023-03-24T16:03:30.633Z,93.50
2023-03-24T16:07:38.313Z,92.50
2023-03-24T16:11:41.518Z,93.70
2023-03-24T16:15:58.470Z,93.10
2023-03-24T16:20:00.271Z,93.10
2023-03-24T16:24:05.325Z,93.70
2023-03-24T16:28:09.323Z,93.50
2023-03-24T16:32:11.182Z,93.90
2023-03-24T16:36:13.397Z,94.90
2023-03-24T16:40:41.371Z,99.90
2023-03-24T16:44:43.058Z,99.90
2023-03-24T16:48:44.864Z,99.90
2023-03-24T16:52:46.508Z,99.90
2023-03-24T16:56:48.236Z,99.90
2023-03-24T17:00:50.578Z,99.90
2023-03-24T17:04:53.057Z,99.90
2023-03-24T17:08:55.188Z,99.90
2023-03-24T17:12:57.504Z,99.90
2023-03-24T17:16:59.624Z,99.90
2023-03-24T17:21:01.489Z,99.90
2023-03-24T17:25:04.482Z,99.90
2023-03-24T17:29:06.473Z,99.90
2023-03-24T17:33:11.371Z,99.90
2023-03-24T17:37:12.976Z,99.90
2023-03-24T17:41:14.913Z,99.90
2023-03-24T17:45:17.590Z,99.90
2023-03-24T17:49:19.560Z,99.90
2023-03-24T17:53:25.609Z,99.90
2023-03-24T17:57:27.960Z,99.90
2023-03-24T18:01:30.222Z,99.90
2023-03-24T18:05:32.261Z,99.90
2023-03-24T18:09:34.378Z,99.90
2023-03-24T18:13:36.949Z,99.90
2023-03-24T18:17:38.637Z,99.90
2023-03-24T18:21:40.498Z,99.90
2023-03-24T18:25:42.197Z,99.90
2023-03-24T18:29:43.898Z,99.90
2023-03-24T18:33:46.889Z,99.90
2023-03-24T18:37:48.612Z,99.90
2023-03-24T18:41:51.345Z,99.90
2023-03-24T18:45:54.980Z,99.90
2023-03-24T18:49:56.756Z,99.90
2023-03-24T18:53:58.700Z,99.90
2023-03-24T18:58:00.383Z,99.90
2023-03-24T19:02:02.065Z,99.90
2023-03-24T19:06:06.816Z,99.90
2023-03-24T19:10:08.717Z,99.90
2023-03-24T19:14:10.555Z,99.90
2023-03-24T19:18:12.715Z,99.90
2023-03-24T19:22:21.454Z,99.90
2023-03-24T19:26:23.177Z,99.90
2023-03-24T19:30:24.878Z,99.90
2023-03-24T19:34:26.760Z,99.90
2023-03-24T19:38:33.732Z,99.90
2023-03-24T19:42:35.456Z,99.90
2023-03-24T19:46:37.263Z,99.90
2023-03-24T19:50:38.914Z,99.90
2023-03-24T19:54:40.695Z,99.90
2023-03-24T19:58:42.529Z,99.90
2023-03-24T20:02:44.644Z,99.90
2023-03-24T20:06:46.533Z,99.90
2023-03-24T20:10:48.269Z,99.90
2023-03-24T20:14:53.354Z,99.90
2023-03-24T20:18:55.109Z,99.90
2023-03-24T20:22:57.002Z,99.90
2023-03-24T20:27:01.694Z,99.90
2023-03-24T20:31:03.893Z,99.90
2023-03-24T20:35:06.270Z,99.90
2023-03-24T20:39:07.980Z,99.90
2023-03-24T20:43:09.666Z,99.90
2023-03-24T20:47:11.458Z,99.90
2023-03-24T20:51:13.476Z,99.90
2023-03-24T20:55:15.281Z,99.90
2023-03-24T20:59:17.232Z,99.90
2023-03-24T21:03:19.047Z,99.90
2023-03-24T21:07:21.005Z,99.90
2023-03-24T21:11:22.712Z,99.90
2023-03-24T21:15:27.678Z,99.90
2023-03-24T21:19:29.466Z,99.90
2023-03-24T21:23:39.096Z,99.90
2023-03-24T21:27:41.193Z,99.90
2023-03-24T21:31:46.160Z,99.90
2023-03-24T21:35:48.130Z,99.90
2023-03-24T21:39:50.391Z,99.90
2023-03-24T21:43:56.437Z,99.90
2023-03-24T21:47:58.616Z,99.90
2023-03-24T21:52:00.885Z,99.90
2023-03-24T21:56:06.084Z,99.90
2023-03-24T22:00:14.637Z,99.90
2023-03-24T22:04:17.549Z,99.90
2023-03-24T22:08:22.952Z,99.90
2023-03-24T22:12:25.208Z,99.90
2023-03-24T22:16:30.626Z,99.90
2023-03-24T22:20:33.529Z,99.90
2023-03-24T22:24:35.588Z,99.90
2023-03-24T22:28:38.097Z,99.90
2023-03-24T22:32:40.499Z,99.90
2023-03-24T22:36:42.654Z,99.90
2023-03-24T22:40:44.745Z,99.90
2023-03-24T22:44:47.033Z,99.90
2023-03-24T22:48:48.735Z,99.90
2023-03-24T22:52:50.862Z,99.90
2023-03-24T22:56:52.610Z,99.90
2023-03-24T23:00:55.846Z,99.90
2023-03-24T23:04:57.496Z,99.90
2023-03-24T23:09:02.147Z,99.90
2023-03-24T23:13:04.091Z,99.90
2023-03-24T23:17:09.274Z,99.90
2023-03-24T23:21:12.311Z,99.90
2023-03-24T23:25:14.444Z,99.90
2023-03-24T23:29:16.071Z,99.90
2023-03-24T23:33:17.874Z,99.90
2023-03-24T23:37:19.492Z,99.90
2023-03-24T23:41:21.391Z,99.90
2023-03-24T23:45:23.023Z,99.90
2023-03-24T23:49:24.639Z,99.90
2023-03-24T23:53:26.650Z,99.90
2023-03-24T23:57:28.548Z,99.90
